Time;durP1;ratioP1;P1;durP2;ratioP2;P2;SDS_P1;SDS_P2;PMS_P1;PMS_P2;Temp;Humidity;BMP_temperature;BMP_pressure;BME280_temperature;BME280_humidity;BME280_pressure;Samples;Min_cycle;Max_cycle;Signal;HPM_P1;HPM_P2
2022/01/30 00:00:50;;;;;;;22.23;21.13;;;;;;;;;;5092853;28;20304;-77
2022/01/30 00:03:17;;;;;;;21.73;20.73;;;;;;;;;;5092662;28;20316;-77
2022/01/30 00:05:43;;;;;;;22.00;21.00;;;;;;;;;;5092707;28;20285;-77
2022/01/30 00:08:10;;;;;;;22.97;21.87;;;;;;;;;;5092982;28;20277;-77
2022/01/30 00:10:40;;;;;;;22.73;21.63;;;;;;;;;;5092964;28;20201;-77
2022/01/30 00:13:09;;;;;;;23.67;22.57;;;;;;;;;;5092595;28;20198;-77
2022/01/30 00:15:41;;;;;;;24.83;23.63;;;;;;;;;;5092536;28;20197;-77
2022/01/30 00:18:19;;;;;;;23.47;22.37;;;;;;;;;;5092545;28;20181;-76
2022/01/30 00:20:58;;;;;;;23.33;22.23;;;;;;;;;;5092840;28;20186;-77
2022/01/30 00:23:27;;;;;;;25.60;22.90;;;;;;;;;;5092349;28;20301;-77
2022/01/30 00:25:56;;;;;;;22.20;21.20;;;;;;;;;;5092925;28;20280;-76
2022/01/30 00:28:25;;;;;;;23.43;22.33;;;;;;;;;;5092682;28;20193;-77
2022/01/30 00:30:53;;;;;;;21.93;20.93;;;;;;;;;;5092372;28;20194;-76
2022/01/30 00:33:21;;;;;;;21.93;20.93;;;;;;;;;;5092358;28;20695;-77
2022/01/30 00:35:48;;;;;;;22.27;21.27;;;;;;;;;;5092327;28;20197;-77
2022/01/30 00:38:18;;;;;;;22.20;21.20;;;;;;;;;;5092555;28;20193;-76
2022/01/30 00:40:45;;;;;;;22.33;21.33;;;;;;;;;;5092262;28;20193;-76
2022/01/30 00:43:12;;;;;;;21.67;20.67;;;;;;;;;;5092340;28;20707;-76
2022/01/30 00:45:39;;;;;;;23.00;21.90;;;;;;;;;;5092413;28;20621;-76
2022/01/30 00:48:08;;;;;;;22.17;21.17;;;;;;;;;;5092147;28;20659;-77
2022/01/30 00:50:35;;;;;;;21.77;20.77;;;;;;;;;;5092024;28;20782;-77
2022/01/30 00:53:01;;;;;;;22.27;21.17;;;;;;;;;;5092613;28;20280;-76
2022/01/30 00:55:29;;;;;;;21.97;20.97;;;;;;;;;;5092069;28;20189;-77
2022/01/30 00:57:56;;;;;;;22.30;21.30;;;;;;;;;;5092057;28;20198;-76
2022/01/30 01:00:23;;;;;;;21.47;20.47;;;;;;;;;;5092118;28;20274;-76
2022/01/30 01:02:50;;;;;;;21.43;20.43;;;;;;;;;;5092204;28;20257;-77
2022/01/30 01:05:18;;;;;;;20.97;20.07;;;;;;;;;;5093137;28;20225;-77
2022/01/30 01:07:47;;;;;;;21.53;20.53;;;;;;;;;;5096149;28;20204;-76
2022/01/30 01:10:23;;;;;;;22.37;21.37;;;;;;;;;;5096418;28;20276;-76
2022/01/30 01:13:02;;;;;;;22.07;21.07;;;;;;;;;;5096152;28;20197;-77
2022/01/30 01:23:20;;;;;;;21.97;20.97;;;;;;;;;;5096354;28;20189;-77
2022/01/30 01:23:48;;;;;;;21.67;20.70;;;;;;;;;;5095829;28;20217;-77
2022/01/30 01:26:15;;;;;;;21.87;20.87;;;;;;;;;;5096167;28;20616;-77
2022/01/30 01:28:42;;;;;;;22.70;21.70;;;;;;;;;;5096136;28;20205;-77
2022/01/30 01:31:09;;;;;;;21.87;20.77;;;;;;;;;;5095714;28;20284;-77
2022/01/30 01:33:45;;;;;;;18.47;17.57;;;;;;;;;;5095662;28;20197;-76
2022/01/30 01:36:14;;;;;;;22.40;21.40;;;;;;;;;;5095712;28;20277;-76
2022/01/30 01:38:40;;;;;;;21.23;20.33;;;;;;;;;;5095581;28;20201;-77
2022/01/30 01:41:07;;;;;;;19.93;19.03;;;;;;;;;;5096102;28;20338;-78
2022/01/30 01:43:35;;;;;;;21.57;20.57;;;;;;;;;;5095691;28;20298;-76
2022/01/30 01:46:02;;;;;;;20.87;19.97;;;;;;;;;;5095738;28;20200;-77
2022/01/30 01:48:33;;;;;;;22.30;21.30;;;;;;;;;;5095622;28;20198;-77
2022/01/30 01:51:06;;;;;;;19.73;18.83;;;;;;;;;;5095389;28;20182;-77
2022/01/30 01:53:34;;;;;;;21.27;19.90;;;;;;;;;;5096372;28;20198;-77
2022/01/30 01:56:01;;;;;;;20.17;19.27;;;;;;;;;;5095554;28;20190;-77
2022/01/30 01:58:28;;;;;;;21.23;20.23;;;;;;;;;;5095494;28;20190;-77
2022/01/30 02:00:55;;;;;;;20.17;19.27;;;;;;;;;;5094025;28;20233;-77
2022/01/30 02:03:23;;;;;;;20.27;19.37;;;;;;;;;;5093874;28;20279;-77
2022/01/30 02:05:54;;;;;;;20.20;19.20;;;;;;;;;;5094174;28;20204;-77
2022/01/30 02:08:32;;;;;;;19.07;18.17;;;;;;;;;;5094243;28;20226;-77
2022/01/30 02:11:04;;;;;;;19.33;18.43;;;;;;;;;;5093843;28;20243;-77
2022/01/30 02:13:41;;;;;;;18.40;17.50;;;;;;;;;;5094120;28;20216;-77
2022/01/30 02:24:36;;;;;;;22.10;21.00;;;;;;;;;;5045646;28;20237;-77
2022/01/30 02:27:04;;;;;;;19.77;18.87;;;;;;;;;;5093616;28;20217;-77
2022/01/30 02:29:30;;;;;;;20.77;19.77;;;;;;;;;;5093552;28;20677;-77
2022/01/30 02:31:59;;;;;;;21.20;20.20;;;;;;;;;;5093505;28;20229;-77
2022/01/30 02:34:27;;;;;;;22.37;21.37;;;;;;;;;;5093461;28;20198;-78
2022/01/30 02:36:54;;;;;;;23.37;22.27;;;;;;;;;;5093378;28;20194;-77
2022/01/30 02:39:21;;;;;;;22.17;21.17;;;;;;;;;;5093693;28;20193;-77
2022/01/30 02:41:49;;;;;;;21.03;20.03;;;;;;;;;;5093707;28;20219;-77
2022/01/30 02:44:20;;;;;;;21.87;20.80;;;;;;;;;;5093508;28;20312;-78
2022/01/30 02:46:50;;;;;;;22.87;21.87;;;;;;;;;;5093628;28;20186;-78
2022/01/30 02:52:03;;;;;;;19.60;18.50;;;;;;;;;;5052066;28;20190;-78
2022/01/30 02:54:31;;;;;;;20.53;19.63;;;;;;;;;;5093912;28;20194;-77
2022/01/30 02:56:59;;;;;;;22.17;21.27;;;;;;;;;;5093044;28;20194;-78
2022/01/30 02:59:26;;;;;;;22.27;21.37;;;;;;;;;;5048569;28;1271426;-78
2022/01/30 03:01:53;;;;;;;22.03;21.10;;;;;;;;;;5094009;28;20201;-78
2022/01/30 03:04:20;;;;;;;23.60;22.40;;;;;;;;;;5093860;28;20318;-78
2022/01/30 03:06:47;;;;;;;23.43;22.33;;;;;;;;;;5094111;28;20198;-78
2022/01/30 03:09:14;;;;;;;23.17;22.17;;;;;;;;;;5094131;28;20280;-79
2022/01/30 03:11:41;;;;;;;22.77;21.77;;;;;;;;;;5094044;28;20277;-78
2022/01/30 03:14:09;;;;;;;22.63;21.63;;;;;;;;;;5094241;28;20202;-77
2022/01/30 03:16:35;;;;;;;22.93;21.93;;;;;;;;;;5093660;28;20244;-78
2022/01/30 03:19:02;;;;;;;22.10;21.10;;;;;;;;;;5093558;28;20646;-78
2022/01/30 03:21:29;;;;;;;23.70;22.60;;;;;;;;;;5093602;28;20660;-77
2022/01/30 03:23:56;;;;;;;23.03;22.03;;;;;;;;;;5093480;28;20222;-77
2022/01/30 03:26:22;;;;;;;22.40;21.40;;;;;;;;;;5093811;28;20194;-78
2022/01/30 03:28:51;;;;;;;21.87;20.87;;;;;;;;;;5092740;28;20198;-79
2022/01/30 03:31:20;;;;;;;22.73;21.63;;;;;;;;;;5093651;28;20213;-78
2022/01/30 03:33:47;;;;;;;23.20;22.10;;;;;;;;;;5093349;28;20247;-78
2022/01/30 03:36:14;;;;;;;22.90;21.90;;;;;;;;;;5093235;28;20232;-78
2022/01/30 03:38:40;;;;;;;23.47;22.47;;;;;;;;;;5093588;28;20193;-79
2022/01/30 03:41:07;;;;;;;23.57;22.47;;;;;;;;;;5093498;28;20236;-78
2022/01/30 03:43:34;;;;;;;22.37;21.37;;;;;;;;;;5093394;28;20194;-79
2022/01/30 03:46:00;;;;;;;24.27;23.17;;;;;;;;;;5093442;28;20656;-79
2022/01/30 03:48:29;;;;;;;21.47;20.37;;;;;;;;;;5093318;28;20247;-78
2022/01/30 03:50:55;;;;;;;21.33;20.23;;;;;;;;;;5093031;28;20671;-79
2022/01/30 03:53:22;;;;;;;22.67;21.33;;;;;;;;;;5093028;28;20225;-79
2022/01/30 03:55:49;;;;;;;21.63;20.53;;;;;;;;;;5092901;28;20198;-79
2022/01/30 03:58:15;;;;;;;22.83;21.63;;;;;;;;;;5093222;28;20229;-79
2022/01/30 04:00:42;;;;;;;22.87;21.67;;;;;;;;;;5092614;28;20230;-78
2022/01/30 04:03:09;;;;;;;22.30;21.10;;;;;;;;;;5093137;28;20229;-79
2022/01/30 04:05:37;;;;;;;22.47;21.27;;;;;;;;;;5092965;28;20225;-79
2022/01/30 04:08:04;;;;;;;21.40;20.20;;;;;;;;;;5092683;28;20286;-79
2022/01/30 04:10:31;;;;;;;23.73;22.53;;;;;;;;;;5092696;28;20221;-78
2022/01/30 04:12:58;;;;;;;22.63;21.43;;;;;;;;;;5093126;28;20190;-78
2022/01/30 04:15:25;;;;;;;22.87;21.67;;;;;;;;;;5092987;28;20236;-78
2022/01/30 04:17:52;;;;;;;22.97;21.67;;;;;;;;;;5092928;28;20225;-78
2022/01/30 04:20:19;;;;;;;22.80;21.60;;;;;;;;;;5092492;28;20280;-78
2022/01/30 04:22:47;;;;;;;24.33;23.03;;;;;;;;;;5092790;28;20733;-79
2022/01/30 04:25:14;;;;;;;24.17;22.87;;;;;;;;;;5092332;28;20231;-78
2022/01/30 04:27:40;;;;;;;24.47;23.07;;;;;;;;;;5092729;28;20236;-78
2022/01/30 04:30:09;;;;;;;24.67;23.37;;;;;;;;;;5092652;28;20198;-79
2022/01/30 04:32:41;;;;;;;24.50;23.20;;;;;;;;;;5092335;28;20206;-78
2022/01/30 04:35:12;;;;;;;23.53;22.33;;;;;;;;;;5092623;28;20225;-78
2022/01/30 04:37:51;;;;;;;24.10;22.90;;;;;;;;;;5092644;28;20182;-79
2022/01/30 04:40:42;;;;;;;23.53;22.30;;;;;;;;;;5092404;28;20198;-79
2022/01/30 04:56:59;;;;;;;21.83;20.83;;;;;;;;;;5091872;28;20193;-78
2022/01/30 05:02:42;;;;;;;24.50;23.30;;;;;;;;;;5010266;28;20189;-79
2022/01/30 05:05:35;;;;;;;22.90;21.80;;;;;;;;;;5084221;28;20269;-78
2022/01/30 05:08:02;;;;;;;23.20;22.10;;;;;;;;;;5090844;28;20194;-78
2022/01/30 05:10:29;;;;;;;23.77;22.67;;;;;;;;;;5091962;28;20196;-78
2022/01/30 05:12:59;;;;;;;24.43;23.33;;;;;;;;;;5091870;28;20193;-78
2022/01/30 05:15:28;;;;;;;25.27;24.10;;;;;;;;;;5093025;28;20205;-79
2022/01/30 05:17:55;;;;;;;23.00;22.00;;;;;;;;;;5092171;28;20196;-79
2022/01/30 05:20:22;;;;;;;23.37;22.33;;;;;;;;;;5091823;28;20198;-78
2022/01/30 05:22:48;;;;;;;24.13;23.03;;;;;;;;;;5092119;28;20198;-79
2022/01/30 05:25:16;;;;;;;23.10;22.10;;;;;;;;;;5092041;28;20283;-79
2022/01/30 05:27:42;;;;;;;22.47;21.47;;;;;;;;;;5092121;28;20228;-78
2022/01/30 05:30:11;;;;;;;23.23;22.23;;;;;;;;;;5091975;28;20190;-79
2022/01/30 05:32:38;;;;;;;23.67;22.37;;;;;;;;;;5092047;28;20198;-78
2022/01/30 05:35:05;;;;;;;20.60;19.80;;;;;;;;;;5092005;28;20226;-79
2022/01/30 05:37:32;;;;;;;20.40;19.60;;;;;;;;;;5091833;28;20721;-79
2022/01/30 05:39:59;;;;;;;20.83;20.03;;;;;;;;;;5091992;28;20220;-79
2022/01/30 05:42:28;;;;;;;21.43;20.53;;;;;;;;;;5091942;28;20248;-77
2022/01/30 05:45:00;;;;;;;20.50;19.63;;;;;;;;;;5091555;28;20644;-78
2022/01/30 05:47:35;;;;;;;18.17;17.37;;;;;;;;;;5091848;28;20251;-80
2022/01/30 05:50:02;;;;;;;19.20;18.20;;;;;;;;;;5091653;28;20644;-79
2022/01/30 05:52:29;;;;;;;20.17;19.07;;;;;;;;;;5094146;28;20664;-79
2022/01/30 05:54:55;;;;;;;20.77;19.77;;;;;;;;;;5095490;28;20553;-78
2022/01/30 05:57:22;;;;;;;22.73;21.73;;;;;;;;;;5095784;28;20310;-79
2022/01/30 05:59:49;;;;;;;20.30;19.30;;;;;;;;;;5095266;28;20287;-76
2022/01/30 06:02:16;;;;;;;21.83;20.73;;;;;;;;;;5095447;28;20198;-78
2022/01/30 06:04:44;;;;;;;21.93;20.73;;;;;;;;;;5095307;28;20257;-78
2022/01/30 06:07:11;;;;;;;20.50;19.50;;;;;;;;;;5095331;28;20194;-78
2022/01/30 06:09:38;;;;;;;19.80;18.90;;;;;;;;;;5095332;28;20194;-78
2022/01/30 06:12:06;;;;;;;20.20;19.23;;;;;;;;;;5094983;28;20289;-78
2022/01/30 06:14:33;;;;;;;19.87;18.97;;;;;;;;;;5095243;28;20731;-78
2022/01/30 06:17:00;;;;;;;19.47;18.57;;;;;;;;;;5094851;28;20194;-78
2022/01/30 06:19:26;;;;;;;19.40;18.50;;;;;;;;;;5094815;28;20205;-78
2022/01/30 06:21:54;;;;;;;19.53;18.63;;;;;;;;;;5094761;28;20246;-78
2022/01/30 06:24:21;;;;;;;20.07;19.13;;;;;;;;;;5094655;28;20755;-78
2022/01/30 06:26:48;;;;;;;19.70;18.80;;;;;;;;;;5094657;28;20602;-79
2022/01/30 06:29:14;;;;;;;21.33;20.43;;;;;;;;;;5094904;28;20243;-78
2022/01/30 06:31:41;;;;;;;17.93;16.93;;;;;;;;;;5094581;28;20285;-79
2022/01/30 06:34:08;;;;;;;21.10;20.20;;;;;;;;;;5094488;28;20197;-80
2022/01/30 06:36:34;;;;;;;19.40;18.47;;;;;;;;;;5094810;28;20273;-78
2022/01/30 06:39:03;;;;;;;18.53;17.73;;;;;;;;;;5094725;28;20587;-78
2022/01/30 06:41:29;;;;;;;20.80;19.80;;;;;;;;;;5094334;28;20281;-78
2022/01/30 06:43:56;;;;;;;18.80;17.97;;;;;;;;;;5094631;28;20263;-78
2022/01/30 06:46:23;;;;;;;20.87;19.97;;;;;;;;;;5094420;28;20317;-78
2022/01/30 06:48:49;;;;;;;19.30;18.50;;;;;;;;;;5094595;28;20704;-78
2022/01/30 06:51:16;;;;;;;18.57;17.47;;;;;;;;;;5094558;28;20194;-78
2022/01/30 06:53:43;;;;;;;18.67;17.67;;;;;;;;;;5094447;28;20193;-78
2022/01/30 06:56:11;;;;;;;17.57;16.67;;;;;;;;;;5094111;28;20204;-79
2022/01/30 06:58:37;;;;;;;18.10;17.20;;;;;;;;;;5094281;28;20282;-78
2022/01/30 07:01:04;;;;;;;17.80;16.90;;;;;;;;;;5094092;28;20225;-78
2022/01/30 07:03:31;;;;;;;18.47;17.57;;;;;;;;;;5092785;28;20656;-79
2022/01/30 07:05:58;;;;;;;21.13;20.23;;;;;;;;;;5094124;28;20261;-78
2022/01/30 07:08:24;;;;;;;19.03;18.13;;;;;;;;;;5094147;28;20189;-77
2022/01/30 07:10:51;;;;;;;19.30;18.20;;;;;;;;;;5093797;28;20229;-79
2022/01/30 07:13:19;;;;;;;19.80;18.80;;;;;;;;;;5093752;28;20198;-79
2022/01/30 07:15:46;;;;;;;20.73;19.63;;;;;;;;;;5093711;28;20197;-78
2022/01/30 07:18:12;;;;;;;19.37;18.37;;;;;;;;;;5093887;28;20284;-77
2022/01/30 07:20:39;;;;;;;19.47;18.47;;;;;;;;;;5093942;28;20194;-78
2022/01/30 07:23:06;;;;;;;19.43;18.50;;;;;;;;;;5093501;28;20626;-79
2022/01/30 07:25:32;;;;;;;19.53;18.53;;;;;;;;;;5093452;28;20695;-78
2022/01/30 07:27:59;;;;;;;19.60;18.70;;;;;;;;;;5093776;28;20194;-78
2022/01/30 07:30:27;;;;;;;20.57;19.57;;;;;;;;;;5093422;28;20706;-79
2022/01/30 07:32:55;;;;;;;19.90;18.97;;;;;;;;;;5093648;28;20643;-78
2022/01/30 07:35:21;;;;;;;20.23;19.23;;;;;;;;;;5093295;28;20625;-78
2022/01/30 07:37:49;;;;;;;21.17;20.07;;;;;;;;;;5093278;28;20194;-79
2022/01/30 07:40:15;;;;;;;20.10;19.10;;;;;;;;;;5093514;28;20198;-77
2022/01/30 07:42:42;;;;;;;20.13;19.13;;;;;;;;;;5093550;28;20277;-78
2022/01/30 07:45:10;;;;;;;19.17;18.17;;;;;;;;;;5093016;28;20642;-79
2022/01/30 07:47:38;;;;;;;21.77;20.57;;;;;;;;;;5093125;28;20198;-78
2022/01/30 07:50:05;;;;;;;22.50;21.30;;;;;;;;;;5093066;28;20248;-77
2022/01/30 07:52:32;;;;;;;22.57;21.37;;;;;;;;;;5093306;28;20276;-77
2022/01/30 07:54:58;;;;;;;23.00;21.70;;;;;;;;;;5093305;28;20267;-78
2022/01/30 07:57:25;;;;;;;23.87;22.53;;;;;;;;;;5092996;28;20190;-77
2022/01/30 07:59:52;;;;;;;22.00;20.80;;;;;;;;;;5092885;28;20240;-78
2022/01/30 08:02:18;;;;;;;22.33;21.13;;;;;;;;;;5092949;28;20201;-78
2022/01/30 08:04:47;;;;;;;22.30;21.10;;;;;;;;;;5092993;28;20194;-75
2022/01/30 08:07:13;;;;;;;20.70;19.60;;;;;;;;;;5093307;28;20197;-75
2022/01/30 08:09:40;;;;;;;21.00;19.90;;;;;;;;;;5093039;28;20277;-75
2022/01/30 08:12:07;;;;;;;21.97;20.87;;;;;;;;;;5092641;28;20252;-76
2022/01/30 08:14:34;;;;;;;22.17;21.07;;;;;;;;;;5092314;28;20194;-76
2022/01/30 08:17:01;;;;;;;23.10;21.87;;;;;;;;;;5092539;28;20193;-76
2022/01/30 08:19:28;;;;;;;22.63;21.53;;;;;;;;;;5092585;28;20240;-79
2022/01/30 08:21:57;;;;;;;22.20;21.10;;;;;;;;;;5092770;28;20293;-76
2022/01/30 08:24:24;;;;;;;24.50;23.10;;;;;;;;;;5092797;28;20200;-76
2022/01/30 08:26:51;;;;;;;24.97;23.23;;;;;;;;;;5092653;28;20240;-76
2022/01/30 08:29:18;;;;;;;25.60;24.10;;;;;;;;;;5092344;28;20194;-75
2022/01/30 08:31:44;;;;;;;26.23;24.73;;;;;;;;;;5092707;28;20198;-75
2022/01/30 08:34:11;;;;;;;26.33;24.87;;;;;;;;;;5092299;28;20198;-75
2022/01/30 08:36:38;;;;;;;25.47;24.07;;;;;;;;;;5092343;28;20727;-75
2022/01/30 08:39:06;;;;;;;25.73;24.33;;;;;;;;;;5092629;28;20193;-75
2022/01/30 08:41:33;;;;;;;24.47;23.17;;;;;;;;;;5092228;28;20732;-76
2022/01/30 08:44:00;;;;;;;25.50;23.93;;;;;;;;;;5092581;28;20228;-76
2022/01/30 08:46:27;;;;;;;25.43;24.03;;;;;;;;;;5092406;28;20260;-75
2022/01/30 08:48:53;;;;;;;24.33;23.03;;;;;;;;;;5092202;28;20725;-77
2022/01/30 08:51:21;;;;;;;26.50;25.00;;;;;;;;;;5092454;28;20251;-77
2022/01/30 08:53:48;;;;;;;27.23;25.63;;;;;;;;;;5092124;28;20722;-76
2022/01/30 08:56:18;;;;;;;23.80;22.60;;;;;;;;;;5092146;28;20197;-76
2022/01/30 08:58:45;;;;;;;24.47;23.10;;;;;;;;;;5092093;28;20251;-76
2022/01/30 09:01:13;;;;;;;25.03;23.60;;;;;;;;;;5091910;28;20225;-77
2022/01/30 09:03:40;;;;;;;24.97;23.67;;;;;;;;;;5092091;28;20617;-78
2022/01/30 09:06:06;;;;;;;23.30;22.10;;;;;;;;;;5091982;28;20739;-76
2022/01/30 09:08:33;;;;;;;24.77;23.37;;;;;;;;;;5092250;28;20194;-77
2022/01/30 09:11:00;;;;;;;25.93;24.53;;;;;;;;;;5091957;28;20190;-77
2022/01/30 09:13:28;;;;;;;23.67;22.37;;;;;;;;;;5091945;28;20725;-78
2022/01/30 09:15:57;;;;;;;26.00;24.60;;;;;;;;;;5091880;28;20262;-79
2022/01/30 09:18:25;;;;;;;24.87;23.37;;;;;;;;;;5091873;28;20201;-78
2022/01/30 09:20:52;;;;;;;25.40;24.10;;;;;;;;;;5092147;28;20224;-79
2022/01/30 09:23:18;;;;;;;25.90;24.40;;;;;;;;;;5091853;28;20197;-78
2022/01/30 09:25:46;;;;;;;25.83;23.83;;;;;;;;;;5091764;28;20221;-80
2022/01/30 09:28:12;;;;;;;23.67;22.37;;;;;;;;;;5095769;28;20198;-77
2022/01/30 09:30:40;;;;;;;23.93;22.60;;;;;;;;;;5095754;28;20234;-78
2022/01/30 09:33:07;;;;;;;24.60;23.20;;;;;;;;;;5095666;28;20233;-80
2022/01/30 09:35:34;;;;;;;26.13;24.40;;;;;;;;;;5095799;28;20732;-78
2022/01/30 09:38:01;;;;;;;23.80;22.50;;;;;;;;;;5096012;28;20314;-77
2022/01/30 09:40:28;;;;;;;24.97;23.40;;;;;;;;;;5095603;28;20594;-79
2022/01/30 09:42:57;;;;;;;24.83;23.33;;;;;;;;;;5095582;28;20198;-80
2022/01/30 09:45:24;;;;;;;24.03;22.73;;;;;;;;;;5095672;28;20197;-79
2022/01/30 09:47:52;;;;;;;24.87;23.27;;;;;;;;;;5095772;28;20198;-79
2022/01/30 09:50:21;;;;;;;22.57;21.33;;;;;;;;;;5095474;28;20204;-77
2022/01/30 09:52:48;;;;;;;23.73;22.50;;;;;;;;;;5095683;28;20247;-77
2022/01/30 09:55:15;;;;;;;25.73;24.23;;;;;;;;;;5096102;28;20197;-80
2022/01/30 09:57:43;;;;;;;25.43;23.83;;;;;;;;;;5095457;28;20276;-78
2022/01/30 10:00:10;;;;;;;25.73;24.23;;;;;;;;;;5096023;28;20233;-77
2022/01/30 10:02:40;;;;;;;23.67;22.37;;;;;;;;;;5095386;28;20301;-78
2022/01/30 10:05:09;;;;;;;23.60;22.30;;;;;;;;;;5095771;28;20208;-76
2022/01/30 10:07:39;;;;;;;23.37;22.07;;;;;;;;;;5095266;28;20233;-79
2022/01/30 10:10:10;;;;;;;23.90;22.33;;;;;;;;;;5095398;28;20254;-79
2022/01/30 10:12:37;;;;;;;23.47;22.07;;;;;;;;;;5095030;28;20268;-76
2022/01/30 10:15:06;;;;;;;23.53;22.23;;;;;;;;;;5094955;28;20210;-77
2022/01/30 10:17:34;;;;;;;24.23;22.83;;;;;;;;;;5095343;28;20194;-78
2022/01/30 10:20:12;;;;;;;22.07;20.87;;;;;;;;;;5094860;28;20233;-78
2022/01/30 10:22:48;;;;;;;23.97;21.83;;;;;;;;;;5097172;28;20268;-80
2022/01/30 10:25:18;;;;;;;22.80;21.50;;;;;;;;;;5097595;28;20181;-80
2022/01/30 10:27:45;;;;;;;23.80;22.50;;;;;;;;;;5095965;28;20240;-79
2022/01/30 10:30:12;;;;;;;25.87;24.47;;;;;;;;;;5095913;28;20222;-83
2022/01/30 10:32:38;;;;;;;25.40;23.97;;;;;;;;;;5098401;28;20280;-80
2022/01/30 10:35:06;;;;;;;23.47;22.07;;;;;;;;;;5099478;28;20675;-80
2022/01/30 10:37:36;;;;;;;23.00;21.70;;;;;;;;;;5095561;28;20232;-80
2022/01/30 10:40:08;;;;;;;23.63;22.10;;;;;;;;;;5096839;28;20205;-82
2022/01/30 10:42:38;;;;;;;24.60;22.93;;;;;;;;;;5098022;28;20247;-81
2022/01/30 10:45:06;;;;;;;23.93;21.53;;;;;;;;;;5099068;28;20190;-82
2022/01/30 10:47:35;;;;;;;20.97;19.87;;;;;;;;;;5095609;28;20316;-79
2022/01/30 10:50:02;;;;;;;23.10;21.83;;;;;;;;;;5094441;28;20193;-80
2022/01/30 10:52:31;;;;;;;23.30;21.90;;;;;;;;;;5094218;28;20672;-80
2022/01/30 10:55:05;;;;;;;23.80;22.40;;;;;;;;;;5094269;28;20759;-79
2022/01/30 10:57:39;;;;;;;24.70;22.77;;;;;;;;;;5094565;28;20255;-74
2022/01/30 11:00:07;;;;;;;23.17;21.87;;;;;;;;;;5093943;28;20257;-77
2022/01/30 11:02:37;;;;;;;22.80;21.30;;;;;;;;;;5094665;28;20194;-80
2022/01/30 11:05:09;;;;;;;24.67;23.13;;;;;;;;;;5094302;28;20234;-78
2022/01/30 11:07:37;;;;;;;24.03;22.73;;;;;;;;;;5094192;28;20260;-79
2022/01/30 11:10:10;;;;;;;23.57;22.27;;;;;;;;;;5094221;28;20251;-78
2022/01/30 11:12:42;;;;;;;24.20;22.90;;;;;;;;;;5094231;28;20205;-77
2022/01/30 11:15:34;;;;;;;24.87;23.47;;;;;;;;;;5094720;28;20186;-81
2022/01/30 11:18:03;;;;;;;24.37;22.97;;;;;;;;;;5093688;28;20238;-76
2022/01/30 11:20:31;;;;;;;24.00;22.50;;;;;;;;;;5094000;28;20194;-76
2022/01/30 11:23:00;;;;;;;22.90;21.60;;;;;;;;;;5094093;28;20197;-76
2022/01/30 11:25:33;;;;;;;21.53;20.33;;;;;;;;;;5093546;28;20654;-78
2022/01/30 11:28:01;;;;;;;23.50;22.00;;;;;;;;;;5093978;28;20680;-77
2022/01/30 11:30:28;;;;;;;23.73;22.33;;;;;;;;;;5093498;28;20681;-77
2022/01/30 11:32:55;;;;;;;23.67;22.37;;;;;;;;;;5093461;28;20193;-77
2022/01/30 11:35:21;;;;;;;23.37;21.90;;;;;;;;;;5093720;28;20194;-79
2022/01/30 11:37:50;;;;;;;23.07;21.73;;;;;;;;;;5093343;28;20684;-77
2022/01/30 11:40:17;;;;;;;23.90;22.60;;;;;;;;;;5093518;28;20193;-77
2022/01/30 11:42:47;;;;;;;23.23;21.93;;;;;;;;;;5093514;28;20229;-76
2022/01/30 11:45:19;;;;;;;22.83;21.53;;;;;;;;;;5093159;28;20572;-77
2022/01/30 11:47:47;;;;;;;22.40;21.20;;;;;;;;;;5093593;28;20256;-77
2022/01/30 11:50:13;;;;;;;23.50;22.10;;;;;;;;;;5092712;28;20296;-78
2022/01/30 11:52:54;;;;;;;23.17;21.87;;;;;;;;;;5093026;28;20251;-77
2022/01/30 11:55:35;;;;;;;24.03;22.63;;;;;;;;;;5093320;28;20233;-77
2022/01/30 11:58:04;;;;;;;24.40;23.00;;;;;;;;;;5084207;28;20285;-77
2022/01/30 12:00:35;;;;;;;23.80;22.50;;;;;;;;;;5092730;28;20765;-77
2022/01/30 12:03:20;;;;;;;23.53;22.23;;;;;;;;;;5093161;28;20194;-76
2022/01/30 12:05:47;;;;;;;23.93;22.63;;;;;;;;;;5093092;28;20194;-76
2022/01/30 12:08:28;;;;;;;23.77;22.47;;;;;;;;;;5092696;28;20655;-76
2022/01/30 12:10:55;;;;;;;25.30;23.90;;;;;;;;;;5092581;28;20254;-77
2022/01/30 12:13:36;;;;;;;23.17;21.87;;;;;;;;;;5093814;28;20318;-75
2022/01/30 12:16:05;;;;;;;24.40;23.00;;;;;;;;;;5092966;28;20195;-76
2022/01/30 12:18:44;;;;;;;24.13;22.73;;;;;;;;;;5092586;28;20644;-76
2022/01/30 12:21:16;;;;;;;24.67;23.27;;;;;;;;;;5092636;28;20186;-76
2022/01/30 12:23:43;;;;;;;23.60;22.30;;;;;;;;;;5092632;28;20186;-76
2022/01/30 12:26:14;;;;;;;24.43;23.10;;;;;;;;;;5092380;28;20315;-76
2022/01/30 12:28:42;;;;;;;24.73;23.33;;;;;;;;;;5092562;28;20194;-76
2022/01/30 12:31:26;;;;;;;26.33;24.80;;;;;;;;;;5092975;28;20252;-77
2022/01/30 12:33:59;;;;;;;23.77;22.27;;;;;;;;;;5092692;28;20661;-76
2022/01/30 12:36:26;;;;;;;25.60;23.73;;;;;;;;;;5092516;28;20289;-76
2022/01/30 12:39:00;;;;;;;24.67;23.23;;;;;;;;;;5092651;28;20221;-76
2022/01/30 12:41:28;;;;;;;23.67;22.27;;;;;;;;;;5092567;28;20273;-76
2022/01/30 12:43:55;;;;;;;24.57;23.17;;;;;;;;;;5092613;28;20268;-77
2022/01/30 12:46:27;;;;;;;24.80;23.30;;;;;;;;;;5092385;28;20283;-76
2022/01/30 12:49:01;;;;;;;26.73;25.23;;;;;;;;;;5092471;28;20232;-77
2022/01/30 12:51:28;;;;;;;24.73;23.33;;;;;;;;;;5092478;28;20239;-75
2022/01/30 12:53:55;;;;;;;25.70;24.20;;;;;;;;;;5092465;28;20281;-75
2022/01/30 12:56:22;;;;;;;25.33;23.93;;;;;;;;;;5092148;28;20583;-78
2022/01/30 12:58:49;;;;;;;24.40;22.90;;;;;;;;;;5092373;28;20190;-75
2022/01/30 13:01:16;;;;;;;24.63;23.23;;;;;;;;;;5094707;28;20229;-76
2022/01/30 13:03:44;;;;;;;27.37;25.67;;;;;;;;;;5096689;28;20233;-75
2022/01/30 13:06:11;;;;;;;26.10;24.50;;;;;;;;;;5096202;28;20280;-75
2022/01/30 13:08:47;;;;;;;25.70;24.20;;;;;;;;;;5096484;28;20675;-76
2022/01/30 13:11:15;;;;;;;25.50;23.90;;;;;;;;;;5096706;28;20280;-75
2022/01/30 13:13:58;;;;;;;25.97;24.47;;;;;;;;;;5096688;28;20202;-76
2022/01/30 13:16:26;;;;;;;25.90;24.40;;;;;;;;;;5096451;28;20240;-75
2022/01/30 13:18:54;;;;;;;27.20;25.60;;;;;;;;;;5096053;28;20201;-76
2022/01/30 13:21:22;;;;;;;26.77;25.20;;;;;;;;;;5096284;28;20270;-76
2022/01/30 13:23:48;;;;;;;26.23;24.73;;;;;;;;;;5095938;28;20225;-75
2022/01/30 13:26:28;;;;;;;25.90;24.40;;;;;;;;;;5096151;28;20250;-76
2022/01/30 13:28:54;;;;;;;28.20;26.23;;;;;;;;;;5096178;28;20239;-76
2022/01/30 13:31:21;;;;;;;27.10;25.40;;;;;;;;;;5095804;28;20233;-75
2022/01/30 13:34:06;;;;;;;27.00;25.20;;;;;;;;;;5095746;28;20236;-75
2022/01/30 13:36:32;;;;;;;24.37;22.97;;;;;;;;;;5095982;28;20284;-76
2022/01/30 13:39:04;;;;;;;24.50;23.10;;;;;;;;;;5095626;28;20257;-75
2022/01/30 13:41:35;;;;;;;25.20;23.63;;;;;;;;;;5095948;28;20627;-76
2022/01/30 13:44:10;;;;;;;25.27;23.77;;;;;;;;;;5095594;28;20186;-76
2022/01/30 13:46:58;;;;;;;23.70;22.30;;;;;;;;;;5095433;28;20717;-76
2022/01/30 13:49:27;;;;;;;22.87;21.37;;;;;;;;;;5095766;28;20220;-75
2022/01/30 13:52:06;;;;;;;22.70;21.40;;;;;;;;;;5095367;28;20202;-75
2022/01/30 13:54:33;;;;;;;23.80;22.40;;;;;;;;;;5095594;28;20193;-75
2022/01/30 13:57:04;;;;;;;22.80;21.50;;;;;;;;;;5095289;28;20237;-75
2022/01/30 13:59:31;;;;;;;26.43;24.87;;;;;;;;;;5095834;28;20716;-75
2022/01/30 14:01:58;;;;;;;24.70;23.30;;;;;;;;;;5095238;28;20559;-75
2022/01/30 14:04:25;;;;;;;24.93;23.43;;;;;;;;;;5095188;28;20672;-75
2022/01/30 14:06:55;;;;;;;24.43;23.03;;;;;;;;;;5095338;28;20274;-75
2022/01/30 14:09:25;;;;;;;26.47;24.97;;;;;;;;;;5095351;28;20225;-75
2022/01/30 14:12:02;;;;;;;24.57;23.17;;;;;;;;;;5094394;28;20182;-75
2022/01/30 14:14:29;;;;;;;24.93;23.53;;;;;;;;;;5095372;28;20236;-75
2022/01/30 14:17:01;;;;;;;27.67;26.07;;;;;;;;;;5095418;28;20281;-75
2022/01/30 14:19:29;;;;;;;25.30;23.80;;;;;;;;;;5095237;28;20636;-75
2022/01/30 14:22:11;;;;;;;24.57;23.17;;;;;;;;;;5094773;28;20656;-76
2022/01/30 14:24:46;;;;;;;24.50;23.10;;;;;;;;;;5095127;28;20273;-76
2022/01/30 14:27:13;;;;;;;24.50;23.00;;;;;;;;;;5094656;28;20604;-75
2022/01/30 14:29:40;;;;;;;24.23;22.83;;;;;;;;;;5095807;28;20277;-75
2022/01/30 14:32:09;;;;;;;23.77;22.37;;;;;;;;;;5094927;28;20272;-75
2022/01/30 14:34:36;;;;;;;24.17;22.77;;;;;;;;;;5094590;28;20251;-75
2022/01/30 14:37:05;;;;;;;23.40;22.00;;;;;;;;;;5094789;28;20676;-76
2022/01/30 14:39:32;;;;;;;23.40;22.00;;;;;;;;;;5094783;28;20296;-75
2022/01/30 14:42:00;;;;;;;23.60;22.20;;;;;;;;;;5094773;28;20576;-75
2022/01/30 14:44:26;;;;;;;23.33;21.93;;;;;;;;;;5094765;28;20190;-75
2022/01/30 14:46:53;;;;;;;22.57;21.27;;;;;;;;;;5094322;28;20723;-74
2022/01/30 14:49:20;;;;;;;23.30;21.90;;;;;;;;;;5094574;28;20190;-75
2022/01/30 14:51:47;;;;;;;22.77;21.47;;;;;;;;;;5094532;28;20229;-75
2022/01/30 14:54:16;;;;;;;22.73;21.43;;;;;;;;;;5094488;28;20279;-75
2022/01/30 14:56:42;;;;;;;23.30;22.00;;;;;;;;;;5094099;28;20628;-75
2022/01/30 14:59:09;;;;;;;24.57;23.17;;;;;;;;;;5094653;28;20198;-76